createdAt,value
2023-05-21T00:00:18.113Z,8.2
2023-05-21T00:03:18.148Z,8.2
2023-05-21T00:06:18.124Z,8
2023-05-21T00:09:18.123Z,7.7
2023-05-21T00:12:18.132Z,7.8
2023-05-21T00:15:18.128Z,7.8
2023-05-21T00:18:18.134Z,8
2023-05-21T00:21:18.136Z,8.1
2023-05-21T00:24:18.143Z,7.8
2023-05-21T00:27:18.143Z,8
2023-05-21T00:30:18.149Z,8.3
2023-05-21T00:33:18.144Z,8
2023-05-21T00:36:18.144Z,7.6
2023-05-21T00:39:18.162Z,7.9
2023-05-21T00:42:18.166Z,7.7
2023-05-21T00:45:18.155Z,7.8
2023-05-21T00:48:18.165Z,8.3
2023-05-21T00:51:18.185Z,8
2023-05-21T00:54:18.176Z,8
2023-05-21T00:57:18.165Z,7.8
2023-05-21T01:00:18.182Z,7.8
2023-05-21T01:03:18.219Z,7.7
2023-05-21T01:06:18.166Z,8.1
2023-05-21T01:09:18.171Z,7.6
2023-05-21T01:12:18.175Z,7.6
2023-05-21T01:15:18.182Z,7.3
2023-05-21T01:18:18.217Z,7.2
2023-05-21T01:21:18.191Z,7.8
2023-05-21T01:24:18.181Z,7.2
2023-05-21T01:27:18.193Z,7.6
2023-05-21T01:30:18.198Z,7.2
2023-05-21T01:33:18.283Z,7.2
2023-05-21T01:36:18.201Z,7.3
2023-05-21T01:39:18.209Z,7.4
2023-05-21T01:42:18.217Z,7.5
2023-05-21T01:45:18.212Z,7.2
2023-05-21T01:48:18.223Z,7.4
2023-05-21T01:51:18.227Z,7.4
2023-05-21T01:54:18.224Z,6.9
2023-05-21T01:57:18.237Z,7.2
2023-05-21T02:00:18.240Z,7.3
2023-05-21T02:03:18.300Z,7
2023-05-21T02:06:18.245Z,7.1
2023-05-21T02:09:18.248Z,7
2023-05-21T02:12:18.263Z,6.9
2023-05-21T02:15:18.305Z,6.8
2023-05-21T02:18:18.269Z,6.9
2023-05-21T02:21:18.274Z,6.7
2023-05-21T02:24:18.288Z,6.6
2023-05-21T02:27:18.300Z,6.8
2023-05-21T02:30:18.293Z,6.9
2023-05-21T02:33:18.297Z,7
2023-05-21T02:36:18.305Z,7
2023-05-21T02:39:18.313Z,6.7
2023-05-21T02:42:18.314Z,6.8
2023-05-21T02:45:18.340Z,6.7
2023-05-21T02:48:18.324Z,6.9
2023-05-21T02:51:18.323Z,7
2023-05-21T02:54:18.327Z,7.1
2023-05-21T02:57:18.334Z,7.2
2023-05-21T03:00:18.340Z,7.2
2023-05-21T03:03:18.425Z,7
2023-05-21T03:06:18.366Z,6.9
2023-05-21T03:09:18.356Z,6.7
2023-05-21T03:12:18.363Z,7.1
2023-05-21T03:15:18.373Z,7.2
2023-05-21T03:18:18.372Z,7.1
2023-05-21T03:21:18.374Z,7.1
2023-05-21T03:24:18.382Z,7.3
2023-05-21T03:27:18.386Z,7.2
2023-05-21T03:30:18.395Z,6.9
2023-05-21T03:33:18.403Z,6.8
2023-05-21T03:36:18.407Z,6.7
2023-05-21T03:39:18.417Z,7.1
2023-05-21T03:42:18.416Z,7.3
2023-05-21T03:45:18.426Z,7.2
2023-05-21T03:48:18.432Z,7.5
2023-05-21T03:51:18.436Z,7.1
2023-05-21T03:54:18.439Z,7.2
2023-05-21T03:57:18.451Z,7
2023-05-21T04:00:18.467Z,6.9
2023-05-21T04:03:18.661Z,7.2
2023-05-21T04:06:18.458Z,7.5
2023-05-21T04:09:18.470Z,7.3
2023-05-21T04:12:18.472Z,7.2
2023-05-21T04:15:18.485Z,7.3
2023-05-21T04:18:18.489Z,7.4
2023-05-21T04:21:18.499Z,7.3
2023-05-21T04:24:18.497Z,7.7
2023-05-21T04:27:18.506Z,7.5
2023-05-21T04:30:18.517Z,7.5
2023-05-21T04:33:18.668Z,7.5
2023-05-21T04:36:18.527Z,7.3
2023-05-21T04:39:18.536Z,7.8
2023-05-21T04:42:18.541Z,7.2
2023-05-21T04:45:18.547Z,7.3
2023-05-21T04:48:18.553Z,6.9
2023-05-21T04:51:18.560Z,7
2023-05-21T04:54:18.587Z,7.2
2023-05-21T04:57:18.573Z,7.5
2023-05-21T05:00:18.573Z,7.5
2023-05-21T05:03:18.771Z,7.6
2023-05-21T05:06:18.596Z,7.7
2023-05-21T05:09:18.602Z,8
2023-05-21T05:12:18.607Z,8.3
2023-05-21T05:15:18.616Z,8.3
2023-05-21T05:18:18.627Z,8
2023-05-21T05:21:18.630Z,8.2
2023-05-21T05:24:18.637Z,8
2023-05-21T05:27:18.639Z,8.4
2023-05-21T05:30:18.650Z,8
2023-05-21T05:33:18.653Z,8
2023-05-21T05:36:18.658Z,7.9
2023-05-21T05:39:18.664Z,8
2023-05-21T05:42:18.676Z,7.9
2023-05-21T05:45:18.665Z,8.4
2023-05-21T05:48:18.678Z,8.6
2023-05-21T05:51:18.677Z,8.3
2023-05-21T05:54:18.685Z,8.8
2023-05-21T05:57:18.689Z,9
2023-05-21T06:00:18.692Z,9.7
2023-05-21T06:03:18.745Z,9.8
2023-05-21T06:06:18.799Z,9.7
2023-05-21T06:09:18.700Z,9.5
2023-05-21T06:12:18.705Z,10.6
2023-05-21T06:15:18.720Z,10.6
2023-05-21T06:18:18.720Z,10.7
2023-05-21T06:21:18.726Z,10.9
2023-05-21T06:24:18.717Z,11.2
2023-05-21T06:27:18.723Z,11.5
2023-05-21T06:30:18.729Z,11.4
2023-05-21T06:33:18.784Z,11.6
2023-05-21T06:36:18.786Z,11.9
2023-05-21T06:39:18.739Z,12.4
2023-05-21T06:42:18.747Z,11.7
2023-05-21T06:45:18.745Z,12
2023-05-21T06:48:18.758Z,12.4
2023-05-21T06:51:18.754Z,12.2
2023-05-21T06:54:18.762Z,13.1
2023-05-21T06:57:18.764Z,13.3
2023-05-21T07:00:18.771Z,13.4
2023-05-21T07:03:18.818Z,13.4
2023-05-21T07:06:18.760Z,15.3
2023-05-21T07:09:18.782Z,16.1
2023-05-21T07:12:18.776Z,16.6
2023-05-21T07:15:18.775Z,16.7
2023-05-21T07:18:18.783Z,16.5
2023-05-21T07:21:18.792Z,16.8
2023-05-21T07:24:18.791Z,16.4
2023-05-21T07:30:18.816Z,15.8
2023-05-21T07:33:18.811Z,16.3
2023-05-21T07:36:18.825Z,16.1
2023-05-21T07:39:18.827Z,15.7
2023-05-21T07:42:18.837Z,15.4
2023-05-21T07:45:18.858Z,15.9
2023-05-21T07:48:18.863Z,15.1
2023-05-21T07:51:18.867Z,14.7
2023-05-21T07:54:18.884Z,15.5
2023-05-21T07:57:18.894Z,15
2023-05-21T08:00:18.901Z,15.8
2023-05-21T08:03:19.024Z,15
2023-05-21T08:06:18.928Z,14.7
2023-05-21T08:09:18.938Z,14.4
2023-05-21T08:12:18.933Z,14.3
2023-05-21T08:15:19.026Z,14.7
2023-05-21T08:18:18.970Z,14.2
2023-05-21T08:21:19.039Z,14.6
2023-05-21T08:24:18.995Z,14.9
2023-05-21T08:27:19.041Z,14.5
2023-05-21T08:30:19.029Z,14.2
2023-05-21T08:33:21.044Z,14.2
2023-05-21T08:36:19.085Z,14.5
2023-05-21T08:39:19.116Z,14.4
2023-05-21T08:42:29.329Z,14.5
2023-05-21T08:45:19.070Z,14.5
2023-05-21T08:48:19.085Z,14.4
2023-05-21T08:51:19.106Z,14.3
2023-05-21T08:54:19.111Z,14.2
2023-05-21T08:57:19.119Z,14.4
2023-05-21T09:00:19.134Z,14.9
2023-05-21T09:03:19.217Z,14.7
2023-05-21T09:06:19.162Z,13.6
2023-05-21T09:09:19.177Z,13.8
2023-05-21T09:12:19.188Z,14.2
2023-05-21T09:15:19.202Z,13.7
2023-05-21T09:18:19.222Z,14.3
2023-05-21T09:21:19.229Z,13.9
2023-05-21T09:24:19.259Z,13.9
2023-05-21T09:27:19.247Z,13.6
2023-05-21T09:30:21.096Z,14.1
2023-05-21T09:33:19.280Z,13.5
2023-05-21T09:36:19.288Z,13.2
2023-05-21T09:39:19.303Z,12.9
2023-05-21T09:42:19.329Z,13.4
2023-05-21T09:45:19.334Z,13.5
2023-05-21T09:48:19.351Z,13.6
2023-05-21T09:51:19.368Z,13.4
2023-05-21T09:54:19.372Z,13.2
2023-05-21T09:57:19.389Z,13.1
2023-05-21T10:00:19.414Z,13.4
2023-05-21T10:03:19.470Z,12.7
2023-05-21T10:06:19.437Z,12.7
2023-05-21T10:09:19.460Z,13
2023-05-21T10:12:19.488Z,13.2
2023-05-21T10:15:19.486Z,12.7
2023-05-21T10:18:19.497Z,12.8
2023-05-21T10:21:19.508Z,13
2023-05-21T10:24:19.527Z,12.6
2023-05-21T10:27:19.536Z,12.5
2023-05-21T10:30:19.547Z,12.5
2023-05-21T10:33:19.629Z,12.2
2023-05-21T10:36:19.565Z,12.3
2023-05-21T10:39:19.577Z,12.5
2023-05-21T10:42:19.574Z,12.8
2023-05-21T10:45:19.574Z,12.9
2023-05-21T10:48:19.625Z,12.8
2023-05-21T10:51:19.597Z,12.6
2023-05-21T10:54:19.598Z,12.7
2023-05-21T10:57:19.620Z,13
2023-05-21T11:00:19.619Z,12.7
2023-05-21T11:03:19.698Z,12.4
2023-05-21T11:06:19.620Z,12.6
2023-05-21T11:09:19.634Z,13
2023-05-21T11:12:19.638Z,13
2023-05-21T11:15:19.641Z,13.1
2023-05-21T11:18:19.654Z,12.5
2023-05-21T11:21:19.661Z,12.7
2023-05-21T11:24:19.667Z,12.8
2023-05-21T11:30:19.688Z,12.4
2023-05-21T11:33:19.734Z,12.3
2023-05-21T11:36:19.705Z,12.5
2023-05-21T11:39:19.702Z,16.4
2023-05-21T11:42:19.706Z,13.2
2023-05-21T11:45:19.713Z,14.4
2023-05-21T11:48:19.733Z,12.6
2023-05-21T11:51:19.737Z,14.9
2023-05-21T11:54:19.740Z,11.8
2023-05-21T11:57:19.898Z,11.6
2023-05-21T12:00:19.772Z,11.6
2023-05-21T12:03:19.888Z,12
2023-05-21T12:06:19.847Z,11.2
2023-05-21T12:09:19.778Z,11.4
2023-05-21T12:12:19.806Z,11.5
2023-05-21T12:15:19.805Z,11.5
2023-05-21T12:18:19.810Z,10.8
2023-05-21T12:21:19.820Z,10.9
2023-05-21T12:24:19.831Z,10.4
2023-05-21T12:27:19.836Z,11
2023-05-21T12:30:19.845Z,11
2023-05-21T12:33:19.859Z,12.9
2023-05-21T12:36:19.869Z,13.5
2023-05-21T12:39:19.881Z,10.7
2023-05-21T12:42:19.878Z,11.1
2023-05-21T12:45:19.882Z,10.8
2023-05-21T12:48:19.894Z,10.4
2023-05-21T12:51:19.892Z,10.9
2023-05-21T12:54:19.904Z,10.4
2023-05-21T12:57:19.906Z,10.6
2023-05-21T13:00:19.912Z,9.8
2023-05-21T13:03:19.993Z,10
2023-05-21T13:06:19.927Z,9.5
2023-05-21T13:09:19.926Z,9.4
2023-05-21T13:12:19.936Z,9.5
2023-05-21T13:15:19.955Z,9.1
2023-05-21T13:18:19.966Z,10.5
2023-05-21T13:21:19.953Z,10.2
2023-05-21T13:24:19.959Z,9.8
2023-05-21T13:27:19.972Z,9.8
2023-05-21T13:30:19.981Z,9.3
2023-05-21T13:33:20.074Z,9.3
2023-05-21T13:36:19.981Z,10
2023-05-21T13:39:19.984Z,9.5
2023-05-21T13:42:20.036Z,9.7
2023-05-21T13:45:20.003Z,9.4
2023-05-21T13:48:20.024Z,9.7
2023-05-21T13:51:31.086Z,9.5
2023-05-21T13:54:20.008Z,9.6
2023-05-21T13:57:20.013Z,9.6
2023-05-21T14:00:20.022Z,9.6
2023-05-21T14:03:20.045Z,9.8
2023-05-21T14:06:20.054Z,9.5
2023-05-21T14:09:20.032Z,9.6
2023-05-21T14:12:20.046Z,9.9
2023-05-21T14:15:20.055Z,9.9
2023-05-21T14:18:20.057Z,10.3
2023-05-21T14:21:20.057Z,9.4
2023-05-21T14:24:20.062Z,9.9
2023-05-21T14:27:20.063Z,9.3
2023-05-21T14:30:20.063Z,10.5
2023-05-21T14:33:20.124Z,9.7
2023-05-21T14:36:20.073Z,9.3
2023-05-21T14:39:20.084Z,9.4
2023-05-21T14:42:20.077Z,8.7
2023-05-21T14:45:20.101Z,8.8
2023-05-21T14:48:20.096Z,8.8
2023-05-21T14:51:20.106Z,8.7
2023-05-21T14:54:20.125Z,8.8
2023-05-21T14:57:20.105Z,9.3
2023-05-21T15:00:20.116Z,9.3
2023-05-21T15:03:20.153Z,8.8
2023-05-21T15:06:20.117Z,9.4
2023-05-21T15:09:20.129Z,9.3
2023-05-21T15:12:20.127Z,9.2
2023-05-21T15:15:20.142Z,9
2023-05-21T15:18:20.146Z,8.9
2023-05-21T15:21:20.145Z,8.8
2023-05-21T15:24:20.152Z,9.1
2023-05-21T15:27:20.160Z,9.5
2023-05-21T15:30:20.165Z,9.5
2023-05-21T15:33:20.159Z,9.2
2023-05-21T15:36:20.168Z,9.1
2023-05-21T15:39:20.172Z,8.9
2023-05-21T15:42:20.184Z,9.3
2023-05-21T15:45:20.212Z,9.3
2023-05-21T15:48:20.193Z,9
2023-05-21T15:51:20.196Z,9.4
2023-05-21T15:54:20.200Z,9.8
2023-05-21T15:57:20.200Z,9.9
2023-05-21T16:00:20.209Z,9
2023-05-21T16:03:20.251Z,9.5
2023-05-21T16:06:20.217Z,9.7
2023-05-21T16:09:20.224Z,9.5
2023-05-21T16:12:20.229Z,10.1
2023-05-21T16:15:20.243Z,9.1
2023-05-21T16:18:20.242Z,8.9
2023-05-21T16:21:20.251Z,9.4
2023-05-21T16:24:20.252Z,8.9
2023-05-21T16:27:20.261Z,9.3
2023-05-21T16:30:20.268Z,9.5
2023-05-21T16:33:20.273Z,9.4
2023-05-21T16:36:20.274Z,8.8
2023-05-21T16:39:20.341Z,14.3
2023-05-21T16:42:20.292Z,9.7
2023-05-21T16:45:20.279Z,9.1
2023-05-21T16:48:20.290Z,9
2023-05-21T16:51:20.288Z,8.9
2023-05-21T16:54:20.294Z,9
2023-05-21T16:57:20.305Z,8.8
2023-05-21T17:00:20.313Z,8.3
2023-05-21T17:03:20.403Z,8.6
2023-05-21T17:06:20.344Z,8.6
2023-05-21T17:09:20.321Z,8.3
2023-05-21T17:12:20.337Z,9
2023-05-21T17:15:20.330Z,8.6
2023-05-21T17:18:20.330Z,9.3
2023-05-21T17:21:20.365Z,9.4
2023-05-21T17:24:20.338Z,9
2023-05-21T17:27:20.340Z,8.7
2023-05-21T17:30:20.354Z,7.9
2023-05-21T17:33:20.367Z,8.3
2023-05-21T17:36:20.367Z,8.3
2023-05-21T17:39:20.363Z,8.1
2023-05-21T17:42:20.386Z,7.8
2023-05-21T17:45:20.368Z,8
2023-05-21T17:48:20.442Z,8.2
2023-05-21T17:51:20.436Z,7.3
2023-05-21T17:54:20.386Z,7.1
2023-05-21T17:57:20.396Z,7.1
2023-05-21T18:00:20.400Z,7.3
2023-05-21T18:03:20.412Z,7.1
2023-05-21T18:06:20.406Z,6.7
2023-05-21T18:09:20.413Z,6.8
2023-05-21T18:12:20.416Z,6.7
2023-05-21T18:15:20.422Z,7
2023-05-21T18:18:21.695Z,6.7
2023-05-21T18:21:20.430Z,6.3
2023-05-21T18:24:20.464Z,7.1
2023-05-21T18:27:20.451Z,6.6
2023-05-21T18:30:20.442Z,7
2023-05-21T18:33:20.450Z,6.3
2023-05-21T18:36:20.457Z,6.9
2023-05-21T18:39:20.463Z,6.5
2023-05-21T18:42:20.469Z,6.7
2023-05-21T18:45:20.481Z,6.3
2023-05-21T18:48:20.477Z,6.4
2023-05-21T18:51:20.481Z,6.9
2023-05-21T18:54:20.499Z,6.6
2023-05-21T18:57:20.491Z,6.3
2023-05-21T19:00:20.504Z,6.8
2023-05-21T19:03:20.503Z,7.1
2023-05-21T19:06:20.503Z,6.7
2023-05-21T19:09:20.510Z,6.7
2023-05-21T19:12:20.518Z,6.6
2023-05-21T19:15:20.517Z,6.9
2023-05-21T19:18:20.532Z,6.5
2023-05-21T19:21:20.532Z,6.3
2023-05-21T19:24:20.545Z,6.5
2023-05-21T19:27:20.553Z,6.6
2023-05-21T19:30:20.553Z,6.7
2023-05-21T19:33:20.607Z,6.5
2023-05-21T19:36:20.562Z,6.8
2023-05-21T19:39:20.592Z,6.4
2023-05-21T19:42:20.567Z,6.8
2023-05-21T19:45:20.567Z,6.9
2023-05-21T19:48:20.579Z,6.6
2023-05-21T19:51:20.571Z,6.7
2023-05-21T19:54:20.583Z,6.5
2023-05-21T19:57:20.584Z,6.5
2023-05-21T20:00:20.596Z,6.2
2023-05-21T20:03:20.597Z,6.5
2023-05-21T20:06:20.713Z,6.4
2023-05-21T20:09:20.615Z,6.5
2023-05-21T20:12:20.616Z,6.4
2023-05-21T20:15:20.614Z,6.3
2023-05-21T20:18:20.621Z,5.8
2023-05-21T20:21:20.629Z,6.1
2023-05-21T20:24:20.633Z,6.2
2023-05-21T20:27:20.633Z,6.3
2023-05-21T20:30:20.633Z,6.2
2023-05-21T20:33:20.661Z,6.4
2023-05-21T20:36:20.647Z,6.1
2023-05-21T20:39:20.649Z,6.1
2023-05-21T20:42:20.661Z,6.4
2023-05-21T20:45:20.669Z,6.1
2023-05-21T20:48:20.667Z,6.1
2023-05-21T20:51:20.675Z,6.2
2023-05-21T20:54:20.679Z,6.3
2023-05-21T20:57:20.680Z,6.1
2023-05-21T21:00:20.689Z,5.8
2023-05-21T21:03:20.782Z,6
2023-05-21T21:06:20.689Z,6
2023-05-21T21:09:20.688Z,6.1
2023-05-21T21:12:26.281Z,5.9
2023-05-21T21:15:20.696Z,5.8
2023-05-21T21:18:20.709Z,5.5
2023-05-21T21:21:20.706Z,5.5
2023-05-21T21:24:20.715Z,5.5
2023-05-21T21:27:20.723Z,5.4
2023-05-21T21:30:20.758Z,5.4
2023-05-21T21:33:20.777Z,5.3
2023-05-21T21:36:20.720Z,5.3
2023-05-21T21:39:20.793Z,5.3
2023-05-21T21:42:20.744Z,5.5
2023-05-21T21:45:20.726Z,5.4
2023-05-21T21:48:20.747Z,5.4
2023-05-21T21:51:22.534Z,5.5
2023-05-21T21:54:20.761Z,5.3
2023-05-21T21:57:20.988Z,5.3
2023-05-21T22:00:20.772Z,5.3
2023-05-21T22:03:20.771Z,5.4
2023-05-21T22:06:20.772Z,5.3
2023-05-21T22:09:20.831Z,5.4
2023-05-21T22:12:20.781Z,5
2023-05-21T22:15:20.797Z,5.3
2023-05-21T22:18:28.391Z,5.4
2023-05-21T22:21:20.793Z,5.3
2023-05-21T22:24:31.285Z,5.3
2023-05-21T22:27:20.799Z,5.6
2023-05-21T22:30:20.806Z,5.5
2023-05-21T22:33:20.806Z,5.4
2023-05-21T22:36:20.804Z,5.3
2023-05-21T22:39:20.815Z,5.1
2023-05-21T22:42:20.814Z,5.6
2023-05-21T22:45:20.817Z,5.8
2023-05-21T22:48:20.821Z,5.4
2023-05-21T22:51:20.819Z,5.5
2023-05-21T22:54:20.817Z,5.5
2023-05-21T22:57:20.816Z,5.6
2023-05-21T23:00:20.823Z,5.4
2023-05-21T23:03:20.826Z,5.4
2023-05-21T23:06:20.830Z,5.5
2023-05-21T23:09:20.824Z,5.7
2023-05-21T23:12:20.820Z,5.8
2023-05-21T23:15:20.822Z,6
2023-05-21T23:18:20.828Z,5.5
2023-05-21T23:21:20.874Z,5.9
2023-05-21T23:24:20.848Z,5.7
2023-05-21T23:27:20.861Z,6
2023-05-21T23:30:20.857Z,5.8
2023-05-21T23:33:20.885Z,5.9
2023-05-21T23:36:20.894Z,5.9
2023-05-21T23:39:20.936Z,6
2023-05-21T23:42:20.932Z,6
2023-05-21T23:45:20.936Z,6.2
2023-05-21T23:48:20.966Z,6
2023-05-21T23:51:20.948Z,5.7
2023-05-21T23:54:20.968Z,5.8
2023-05-21T23:57:20.971Z,5.7
